Time;durP1;ratioP1;P1;durP2;ratioP2;P2;SDS_P1;SDS_P2;PMS_P1;PMS_P2;Temp;Humidity;BMP_temperature;BMP_pressure;BME280_temperature;BME280_humidity;BME280_pressure;Samples;Min_cycle;Max_cycle;Signal;HPM_P1;HPM_P2
2022/07/02 00:00:27;;;;;;;2.65;1.52;;;15.70;90.00;;;;;;2066318;28;20026;-92
2022/07/02 00:01:27;;;;;;;2.33;1.17;;;15.70;90.00;;;;;;2058009;28;20057;-92
2022/07/02 00:02:32;;;;;;;2.72;1.23;;;15.80;90.40;;;;;;2050567;29;20044;-92
2022/07/02 00:03:38;;;;;;;2.90;1.20;;;15.70;90.10;;;;;;2051043;28;20077;-92
2022/07/02 00:04:46;;;;;;;2.83;1.20;;;15.70;90.20;;;;;;2052095;28;20039;-91
2022/07/02 00:05:52;;;;;;;2.05;1.17;;;15.70;90.20;;;;;;2061206;28;20031;-92
2022/07/02 00:06:53;;;;;;;2.22;1.10;;;15.70;90.20;;;;;;2075596;28;20554;-93
2022/07/02 00:07:54;;;;;;;3.05;1.38;;;15.70;90.20;;;;;;2074915;28;20447;-92
2022/07/02 00:08:55;;;;;;;3.13;1.20;;;15.70;90.50;;;;;;2066937;28;20539;-92
2022/07/02 00:09:58;;;;;;;1.98;1.15;;;15.70;90.60;;;;;;2064233;28;20063;-92
2022/07/02 00:11:03;;;;;;;2.28;1.13;;;15.70;90.30;;;;;;2059483;28;20035;-93
2022/07/02 00:12:04;;;;;;;2.78;1.40;;;15.70;90.30;;;;;;2058840;28;20031;-93
2022/07/02 00:13:06;;;;;;;2.78;1.20;;;15.70;90.30;;;;;;2062130;28;20035;-91
2022/07/02 00:14:08;;;;;;;2.55;1.30;;;15.70;90.40;;;;;;2059621;28;20035;-93
2022/07/02 00:15:10;;;;;;;3.20;1.30;;;15.70;90.40;;;;;;2055106;28;20043;-93
2022/07/02 00:16:11;;;;;;;3.72;1.30;;;15.70;90.40;;;;;;2050272;28;20047;-93
2022/07/02 00:17:12;;;;;;;4.03;1.50;;;15.70;90.40;;;;;;2058146;28;20038;-94
2022/07/02 00:18:14;;;;;;;3.17;1.40;;;15.70;90.50;;;;;;2042020;28;20047;-93
2022/07/02 00:19:15;;;;;;;2.67;1.40;;;15.70;90.50;;;;;;2058267;28;20089;-93
2022/07/02 00:20:16;;;;;;;1.98;1.10;;;15.60;90.50;;;;;;2073990;28;20037;-93
2022/07/02 00:21:18;;;;;;;2.70;1.27;;;15.60;90.50;;;;;;2057706;28;20147;-94
2022/07/02 00:22:20;;;;;;;2.17;1.10;;;15.60;90.50;;;;;;2057899;28;20070;-93
2022/07/02 00:23:20;;;;;;;2.58;1.30;;;15.60;90.60;;;;;;2057896;28;20051;-93
2022/07/02 00:24:22;;;;;;;3.60;1.58;;;15.60;90.60;;;;;;2057689;28;20038;-93
2022/07/02 00:25:26;;;;;;;2.33;1.20;;;15.60;90.60;;;;;;2058495;28;20055;-93
2022/07/02 00:26:40;;;;;;;2.85;1.40;;;15.60;90.90;;;;;;2074302;28;20026;-93
2022/07/02 00:27:42;;;;;;;4.03;1.60;;;15.60;90.70;;;;;;2074037;28;20058;-93
2022/07/02 00:28:46;;;;;;;2.80;1.20;;;15.60;90.70;;;;;;2066224;28;20066;-93
2022/07/02 00:29:56;;;;;;;3.13;1.30;;;15.60;90.70;;;;;;2073808;28;20026;-93
2022/07/02 00:30:56;;;;;;;3.33;1.30;;;15.60;90.70;;;;;;2075097;28;20073;-93
2022/07/02 00:31:58;;;;;;;3.08;1.50;;;15.60;90.70;;;;;;2073980;28;20030;-93
2022/07/02 00:33:02;;;;;;;3.05;1.40;;;15.60;90.70;;;;;;2073812;28;20034;-93
2022/07/02 00:34:05;;;;;;;1.95;1.13;;;15.60;90.80;;;;;;2065858;28;20452;-93
2022/07/02 00:35:08;;;;;;;2.65;1.35;;;15.60;90.70;;;;;;2058045;28;20049;-93
2022/07/02 00:36:21;;;;;;;3.00;1.60;;;15.60;90.80;;;;;;2058556;28;20179;-94
2022/07/02 00:37:25;;;;;;;2.85;1.50;;;15.60;90.80;;;;;;2058989;28;20437;-93
2022/07/02 00:38:25;;;;;;;2.20;1.33;;;15.60;90.80;;;;;;2057828;28;20130;-93
2022/07/02 00:39:26;;;;;;;2.92;1.30;;;15.60;90.80;;;;;;2042156;29;20039;-92
2022/07/02 00:40:29;;;;;;;3.22;1.50;;;15.60;90.80;;;;;;2051254;28;20067;-93
2022/07/02 00:41:32;;;;;;;2.30;1.35;;;15.60;90.80;;;;;;2051938;28;20039;-93
2022/07/02 00:42:35;;;;;;;3.13;1.40;;;15.60;90.90;;;;;;2051648;28;20031;-94
2022/07/02 00:43:36;;;;;;;2.35;1.40;;;15.50;90.90;;;;;;2052218;28;20143;-93
2022/07/02 00:44:39;;;;;;;3.30;1.45;;;15.60;90.90;;;;;;2067536;28;20046;-93
2022/07/02 00:45:40;;;;;;;3.00;1.30;;;15.50;91.00;;;;;;2067450;28;20045;-94
2022/07/02 00:46:42;;;;;;;3.53;1.27;;;15.50;91.00;;;;;;2067274;28;20042;-93
2022/07/02 00:47:43;;;;;;;2.50;1.35;;;15.50;91.00;;;;;;2075425;28;20113;-93
2022/07/02 00:48:44;;;;;;;2.33;1.20;;;15.50;91.00;;;;;;2075865;28;20033;-93
2022/07/02 00:49:46;;;;;;;2.65;1.30;;;15.50;91.00;;;;;;2059617;28;20081;-93
2022/07/02 00:50:46;;;;;;;3.58;1.50;;;15.50;91.10;;;;;;2059372;28;20023;-93
2022/07/02 00:51:47;;;;;;;3.90;1.40;;;15.50;91.10;;;;;;2059275;28;20101;-92
2022/07/02 00:52:48;;;;;;;1.80;1.20;;;15.50;91.10;;;;;;2059008;28;20086;-92
2022/07/02 00:53:49;;;;;;;3.15;1.33;;;15.50;91.10;;;;;;2067197;28;20053;-92
2022/07/02 00:54:49;;;;;;;3.53;1.55;;;15.50;91.10;;;;;;2059318;28;20042;-93
2022/07/02 00:55:57;;;;;;;2.85;1.50;;;15.50;91.10;;;;;;2066000;28;20038;-92
2022/07/02 00:56:58;;;;;;;3.58;1.38;;;15.50;91.10;;;;;;2061106;28;20043;-92
2022/07/02 00:57:59;;;;;;;2.45;1.27;;;15.40;91.10;;;;;;2059175;28;20031;-94
2022/07/02 00:59:03;;;;;;;2.92;1.20;;;15.40;91.10;;;;;;2059359;28;20049;-93
2022/07/02 01:00:04;;;;;;;3.33;1.60;;;15.40;91.10;;;;;;2059654;28;20031;-93
2022/07/02 01:01:05;;;;;;;3.08;1.50;;;15.40;91.10;;;;;;2051048;28;20047;-93
2022/07/02 01:02:08;;;;;;;2.80;1.55;;;15.40;91.10;;;;;;2043365;29;20032;-93
2022/07/02 01:03:10;;;;;;;2.75;1.50;;;15.40;91.10;;;;;;2059327;28;20082;-92
2022/07/02 01:04:14;;;;;;;3.63;1.48;;;15.40;91.10;;;;;;2051483;28;20091;-94
2022/07/02 01:05:18;;;;;;;2.35;1.40;;;15.40;91.10;;;;;;2060183;28;20046;-93
2022/07/02 01:06:21;;;;;;;2.03;1.30;;;15.40;91.10;;;;;;2074718;28;20038;-93
2022/07/02 01:07:22;;;;;;;3.72;1.40;;;15.40;91.10;;;;;;2058727;28;20158;-94
2022/07/02 01:11:08;;;;;;;2.63;1.45;;;15.40;91.10;;;;;;2083891;28;20040;-93
2022/07/02 01:12:10;;;;;;;3.17;1.23;;;15.30;91.10;;;;;;2083556;28;20122;-93
2022/07/02 01:13:12;;;;;;;2.78;1.35;;;15.30;91.10;;;;;;2075417;28;20037;-93
2022/07/02 01:14:20;;;;;;;2.35;1.50;;;15.30;91.10;;;;;;2067316;28;20046;-93
2022/07/02 01:15:46;;;;;;;1.90;1.20;;;15.30;91.10;;;;;;2075176;28;20057;-93
2022/07/02 01:16:50;;;;;;;2.75;1.48;;;15.30;91.10;;;;;;2067108;28;20050;-93
2022/07/02 01:17:58;;;;;;;2.83;1.40;;;15.30;91.10;;;;;;2060653;28;20109;-94
2022/07/02 01:19:00;;;;;;;2.13;1.30;;;15.30;91.20;;;;;;2068408;28;20043;-93
2022/07/02 01:20:09;;;;;;;3.42;1.48;;;15.30;91.20;;;;;;2066544;28;20035;-93
2022/07/02 01:21:25;;;;;;;2.88;1.58;;;15.20;91.20;;;;;;2053474;28;20051;-93
2022/07/02 01:23:03;;;;;;;3.33;1.40;;;15.20;91.20;;;;;;2069582;28;20058;-94
2022/07/02 01:24:15;;;;;;;2.50;1.50;;;15.20;91.10;;;;;;2074864;28;20048;-93
2022/07/02 01:25:22;;;;;;;2.83;1.35;;;15.10;91.20;;;;;;2066694;28;20042;-93
2022/07/02 01:26:27;;;;;;;2.80;1.40;;;15.20;91.20;;;;;;2059958;28;20122;-93
2022/07/02 01:27:28;;;;;;;2.13;1.27;;;15.10;91.20;;;;;;2051382;28;20035;-93
2022/07/02 01:28:29;;;;;;;2.80;1.40;;;15.10;91.30;;;;;;2051623;28;20043;-94
2022/07/02 01:29:29;;;;;;;3.35;1.38;;;15.10;91.60;;;;;;2051099;28;20055;-93
2022/07/02 01:30:30;;;;;;;2.72;1.55;;;15.10;91.30;;;;;;2066278;28;20042;-92
2022/07/02 01:31:31;;;;;;;2.20;1.35;;;15.10;91.30;;;;;;2059024;28;20038;-94
2022/07/02 01:32:33;;;;;;;2.92;1.48;;;15.10;91.30;;;;;;2059311;28;20508;-93
2022/07/02 01:33:34;;;;;;;2.75;1.38;;;15.10;91.30;;;;;;2067412;28;20038;-93
2022/07/02 01:34:41;;;;;;;2.95;1.50;;;15.10;91.30;;;;;;2075729;28;20038;-93
2022/07/02 01:35:42;;;;;;;2.90;1.45;;;15.10;91.40;;;;;;2075931;28;20399;-93
2022/07/02 01:36:42;;;;;;;3.95;1.40;;;15.10;91.40;;;;;;2066825;28;20182;-93
2022/07/02 01:37:43;;;;;;;3.15;1.58;;;15.10;91.40;;;;;;2058932;28;20524;-93
2022/07/02 01:38:44;;;;;;;2.70;1.42;;;15.00;91.40;;;;;;2058746;28;20043;-93
2022/07/02 01:39:46;;;;;;;3.17;1.48;;;15.10;91.40;;;;;;2050958;28;20126;-93
2022/07/02 01:40:46;;;;;;;3.42;1.50;;;15.00;91.40;;;;;;2059344;28;20043;-93
2022/07/02 01:41:47;;;;;;;2.25;1.60;;;15.00;91.40;;;;;;2060433;28;20035;-93
2022/07/02 01:42:48;;;;;;;2.85;1.30;;;15.00;91.50;;;;;;2063927;28;20067;-93
2022/07/02 01:43:48;;;;;;;3.80;1.42;;;15.00;91.50;;;;;;2074382;28;20042;-93
2022/07/02 01:44:50;;;;;;;2.72;1.40;;;15.00;91.50;;;;;;2059345;28;20061;-94
2022/07/02 01:45:52;;;;;;;2.70;1.40;;;15.00;91.50;;;;;;2059532;28;20059;-93
2022/07/02 01:46:53;;;;;;;2.72;1.40;;;15.00;91.50;;;;;;2044671;28;20043;-93
2022/07/02 01:47:54;;;;;;;4.22;1.50;;;15.00;91.50;;;;;;2044251;29;20126;-93
2022/07/02 01:48:54;;;;;;;2.30;1.33;;;15.00;91.50;;;;;;2052471;28;20043;-93
2022/07/02 01:49:55;;;;;;;2.28;1.45;;;14.90;91.50;;;;;;2055149;29;20043;-93
2022/07/02 01:50:56;;;;;;;3.47;1.60;;;14.90;91.50;;;;;;2054367;28;20047;-93
2022/07/02 01:51:56;;;;;;;1.73;1.20;;;14.90;91.50;;;;;;2060925;28;20540;-93
2022/07/02 01:52:57;;;;;;;3.25;1.40;;;15.00;91.50;;;;;;2051809;29;20418;-93
2022/07/02 01:53:58;;;;;;;3.58;1.50;;;14.90;91.50;;;;;;2059778;28;20035;-93
2022/07/02 01:54:58;;;;;;;2.90;1.60;;;14.90;91.50;;;;;;2059210;28;20126;-93
2022/07/02 01:55:59;;;;;;;3.13;1.70;;;14.90;91.50;;;;;;2058916;28;20042;-93
2022/07/02 01:57:01;;;;;;;2.15;1.50;;;15.00;91.50;;;;;;2067068;28;20046;-94
2022/07/02 01:58:01;;;;;;;3.78;1.63;;;14.90;91.50;;;;;;2074622;28;20022;-93
2022/07/02 01:59:03;;;;;;;2.30;1.60;;;14.90;91.50;;;;;;2058908;28;20086;-93
2022/07/02 02:00:06;;;;;;;4.53;1.65;;;14.90;91.50;;;;;;2066771;28;20143;-93
2022/07/02 02:01:07;;;;;;;3.05;1.65;;;14.90;91.50;;;;;;2066720;28;20074;-93
2022/07/02 02:02:07;;;;;;;2.53;1.30;;;14.90;91.50;;;;;;2067118;28;20058;-93
2022/07/02 02:03:08;;;;;;;3.20;1.55;;;14.90;91.50;;;;;;2066977;28;20070;-93
2022/07/02 02:04:09;;;;;;;3.20;1.90;;;14.90;91.50;;;;;;2063816;28;20038;-93
2022/07/02 02:05:10;;;;;;;3.80;1.45;;;14.90;91.50;;;;;;2042992;28;20055;-93
2022/07/02 02:06:11;;;;;;;2.42;1.50;;;14.90;91.60;;;;;;2043480;28;20044;-93
2022/07/02 02:07:11;;;;;;;1.98;1.30;;;14.90;91.60;;;;;;2043139;28;20063;-93
2022/07/02 02:08:12;;;;;;;2.67;1.60;;;14.90;91.60;;;;;;2028068;29;20112;-92
2022/07/02 02:09:13;;;;;;;2.42;1.63;;;14.90;91.60;;;;;;2035912;29;20040;-93
2022/07/02 02:10:13;;;;;;;3.05;1.55;;;14.80;91.60;;;;;;2037425;29;20044;-93
2022/07/02 02:11:14;;;;;;;2.42;1.60;;;14.80;91.60;;;;;;2044158;29;20061;-93
2022/07/02 02:12:15;;;;;;;2.42;1.40;;;14.80;91.60;;;;;;2052958;28;20129;-93
2022/07/02 02:13:16;;;;;;;2.67;1.48;;;14.80;91.60;;;;;;2052016;29;20078;-94
2022/07/02 02:14:16;;;;;;;4.18;1.70;;;14.80;91.60;;;;;;2060331;28;20042;-93
2022/07/02 02:15:17;;;;;;;3.25;1.60;;;14.80;91.60;;;;;;2056486;29;20048;-94
2022/07/02 02:16:18;;;;;;;3.17;1.70;;;14.80;91.70;;;;;;2050649;28;20116;-93
2022/07/02 02:17:19;;;;;;;3.83;1.80;;;14.70;91.70;;;;;;2057049;28;20492;-93
2022/07/02 02:18:19;;;;;;;2.53;1.48;;;14.70;91.70;;;;;;2056717;28;20066;-94
2022/07/02 02:19:20;;;;;;;2.80;1.60;;;14.70;91.70;;;;;;2048314;29;20063;-93
2022/07/02 02:20:21;;;;;;;2.97;1.60;;;14.70;91.70;;;;;;2064319;28;20038;-94
2022/07/02 02:21:25;;;;;;;2.75;1.70;;;14.70;91.70;;;;;;2044061;29;20399;-94
2022/07/02 02:22:26;;;;;;;2.80;1.67;;;14.70;91.80;;;;;;2047146;28;20028;-93
2022/07/02 02:23:27;;;;;;;3.25;1.52;;;14.70;91.80;;;;;;2052750;29;20083;-94
2022/07/02 02:24:27;;;;;;;3.78;1.60;;;14.60;91.80;;;;;;2052161;29;20043;-94
2022/07/02 02:25:28;;;;;;;2.15;1.50;;;14.70;91.90;;;;;;2044702;29;20438;-93
2022/07/02 02:26:29;;;;;;;3.05;1.60;;;14.60;91.80;;;;;;2053138;29;20093;-94
2022/07/02 02:27:30;;;;;;;3.45;1.70;;;14.60;91.90;;;;;;2053354;28;20098;-94
2022/07/02 02:28:30;;;;;;;2.78;1.35;;;14.60;91.90;;;;;;2059759;28;20035;-94
2022/07/02 02:29:32;;;;;;;3.63;1.80;;;14.60;91.90;;;;;;2042649;29;20055;-93
2022/07/02 02:30:33;;;;;;;2.25;1.40;;;14.60;91.90;;;;;;2035443;29;20051;-93
2022/07/02 02:31:34;;;;;;;3.83;1.67;;;14.60;91.90;;;;;;2043020;29;20039;-93
2022/07/02 02:32:36;;;;;;;2.80;1.60;;;14.60;91.90;;;;;;2050865;28;20039;-94
2022/07/02 02:33:37;;;;;;;2.05;1.50;;;14.70;92.00;;;;;;2058472;28;20071;-94
2022/07/02 02:34:38;;;;;;;2.83;1.60;;;14.60;92.00;;;;;;2058429;28;20413;-94
2022/07/02 02:35:39;;;;;;;3.42;1.80;;;14.60;92.00;;;;;;2050588;29;20127;-93
2022/07/02 02:36:39;;;;;;;2.22;1.55;;;14.60;92.00;;;;;;2050622;29;20158;-94
2022/07/02 02:37:40;;;;;;;2.97;1.75;;;14.60;92.00;;;;;;2050557;29;20110;-93
2022/07/02 02:38:41;;;;;;;2.92;1.90;;;14.60;92.00;;;;;;2050330;28;20070;-93
2022/07/02 02:39:41;;;;;;;4.57;1.83;;;14.60;92.00;;;;;;2050364;28;20134;-93
2022/07/02 02:40:42;;;;;;;2.15;1.73;;;14.60;92.00;;;;;;2042401;29;20032;-93
2022/07/02 02:41:43;;;;;;;3.42;1.88;;;14.60;92.00;;;;;;2042400;28;20035;-93
2022/07/02 02:42:44;;;;;;;3.47;1.90;;;14.60;92.00;;;;;;2042677;29;20509;-93
2022/07/02 02:43:44;;;;;;;3.08;1.90;;;14.60;92.00;;;;;;2050675;29;20031;-94
2022/07/02 02:44:45;;;;;;;3.30;1.75;;;14.60;91.90;;;;;;2057978;28;20148;-93
2022/07/02 02:45:47;;;;;;;2.88;1.55;;;14.60;92.00;;;;;;2050412;28;20054;-93
2022/07/02 02:46:48;;;;;;;2.28;1.65;;;14.60;92.00;;;;;;2050656;28;20031;-94
2022/07/02 02:47:49;;;;;;;2.80;1.77;;;14.60;92.00;;;;;;2058531;28;20041;-94
2022/07/02 02:48:50;;;;;;;2.28;1.60;;;14.60;92.00;;;;;;2050796;28;20047;-94
2022/07/02 02:49:51;;;;;;;2.47;1.70;;;14.60;92.00;;;;;;2050349;28;20046;-93
2022/07/02 02:50:52;;;;;;;5.70;2.05;;;14.60;92.00;;;;;;2050740;28;20067;-94
2022/07/02 02:51:52;;;;;;;2.67;1.60;;;14.60;92.00;;;;;;2050335;28;20044;-93
2022/07/02 02:52:53;;;;;;;3.20;1.80;;;14.60;92.00;;;;;;2058415;28;20050;-93
2022/07/02 02:53:54;;;;;;;2.97;1.58;;;14.60;92.10;;;;;;2042491;29;20128;-94
2022/07/02 02:54:54;;;;;;;2.95;1.70;;;14.60;92.10;;;;;;2048576;29;20520;-93
2022/07/02 02:55:56;;;;;;;2.70;1.80;;;14.60;92.10;;;;;;2042462;29;20032;-93
2022/07/02 02:56:57;;;;;;;3.20;1.90;;;14.60;92.10;;;;;;2050531;28;20560;-93
2022/07/02 02:57:58;;;;;;;4.18;1.80;;;14.60;92.30;;;;;;2050479;28;20035;-94
2022/07/02 02:58:58;;;;;;;2.95;1.70;;;14.60;92.00;;;;;;2050669;29;20508;-93
2022/07/02 02:59:59;;;;;;;3.13;1.98;;;14.60;92.10;;;;;;2058235;28;20039;-93
2022/07/02 03:01:00;;;;;;;2.88;1.75;;;14.60;92.10;;;;;;2058687;28;20082;-93
2022/07/02 03:02:01;;;;;;;3.08;1.80;;;14.60;92.10;;;;;;2058083;28;20033;-93
2022/07/02 03:03:02;;;;;;;3.47;1.90;;;14.60;92.10;;;;;;2050080;29;20406;-94
2022/07/02 03:04:02;;;;;;;3.10;1.80;;;14.50;92.00;;;;;;2050112;28;20091;-93
2022/07/02 03:05:03;;;;;;;3.28;1.70;;;14.50;92.00;;;;;;2058134;28;20576;-93
2022/07/02 03:06:04;;;;;;;3.15;1.70;;;14.50;92.00;;;;;;2063697;28;20045;-93
2022/07/02 03:07:05;;;;;;;4.25;1.85;;;14.50;92.10;;;;;;2065771;28;20385;-94
2022/07/02 03:08:06;;;;;;;2.92;1.77;;;14.50;92.10;;;;;;2066279;28;20090;-93
2022/07/02 03:09:07;;;;;;;4.00;1.80;;;14.50;92.10;;;;;;2058461;28;20121;-93
2022/07/02 03:10:08;;;;;;;3.25;1.70;;;14.50;92.10;;;;;;2058246;28;20043;-93
2022/07/02 03:11:09;;;;;;;3.17;1.70;;;14.50;92.10;;;;;;2035574;29;20047;-93
2022/07/02 03:12:12;;;;;;;4.22;1.85;;;14.50;92.10;;;;;;2034451;29;20062;-93
2022/07/02 03:13:12;;;;;;;2.60;1.70;;;14.50;92.10;;;;;;2050795;28;20047;-93
2022/07/02 03:14:13;;;;;;;2.72;1.90;;;14.50;92.10;;;;;;2050657;28;20063;-94
2022/07/02 03:15:14;;;;;;;2.90;1.75;;;14.50;92.10;;;;;;2050719;28;20577;-94
2022/07/02 03:16:15;;;;;;;2.70;1.60;;;14.50;92.10;;;;;;2050460;28;20063;-94
2022/07/02 03:17:15;;;;;;;4.05;2.03;;;14.40;92.10;;;;;;2042192;28;20035;-94
2022/07/02 03:18:16;;;;;;;3.03;1.90;;;14.50;92.20;;;;;;2043098;29;20036;-93
2022/07/02 03:19:16;;;;;;;3.00;1.80;;;14.50;92.20;;;;;;2050557;28;20035;-94
2022/07/02 03:20:17;;;;;;;3.42;1.80;;;14.50;92.20;;;;;;2058699;28;20082;-93
2022/07/02 03:21:18;;;;;;;3.67;1.77;;;14.50;92.20;;;;;;2050702;28;20070;-93
2022/07/02 03:22:19;;;;;;;3.08;1.80;;;14.50;92.20;;;;;;2042809;29;20395;-93
2022/07/02 03:23:20;;;;;;;3.63;1.80;;;14.50;92.20;;;;;;2050940;28;20066;-93
2022/07/02 03:24:21;;;;;;;3.70;1.70;;;14.40;92.20;;;;;;2050339;28;20490;-93
2022/07/02 03:25:22;;;;;;;3.45;1.80;;;14.50;92.20;;;;;;2036124;29;20075;-93
2022/07/02 03:26:22;;;;;;;3.33;1.77;;;14.50;92.20;;;;;;2052709;28;20027;-94
2022/07/02 03:27:24;;;;;;;2.13;1.75;;;14.50;92.20;;;;;;2070046;28;20064;-93
2022/07/02 03:28:26;;;;;;;3.30;1.80;;;14.50;92.20;;;;;;2062076;28;20035;-94
2022/07/02 03:29:26;;;;;;;2.92;1.70;;;14.40;92.20;;;;;;2061273;28;20039;-93
2022/07/02 03:30:27;;;;;;;2.25;1.70;;;14.40;92.20;;;;;;2069901;28;20034;-93
2022/07/02 03:31:28;;;;;;;3.25;1.60;;;14.40;92.30;;;;;;2061281;28;20597;-94
2022/07/02 03:32:29;;;;;;;3.55;1.95;;;14.50;92.30;;;;;;2054899;28;20528;-94
2022/07/02 03:33:30;;;;;;;3.47;1.90;;;14.40;92.30;;;;;;2063531;28;20063;-94
2022/07/02 03:34:30;;;;;;;3.75;1.80;;;14.50;92.30;;;;;;2064641;28;20041;-93
2022/07/02 03:35:31;;;;;;;3.63;1.80;;;14.40;92.30;;;;;;2047012;29;20044;-93
2022/07/02 03:36:32;;;;;;;2.58;1.80;;;14.50;92.30;;;;;;2054676;29;20051;-93
2022/07/02 03:37:32;;;;;;;3.92;1.90;;;14.50;92.30;;;;;;2047231;29;20068;-93
2022/07/02 03:38:34;;;;;;;2.35;1.80;;;14.50;92.30;;;;;;2056361;28;20042;-93
2022/07/02 03:39:35;;;;;;;3.08;1.70;;;14.50;92.30;;;;;;2057520;28;20031;-93
2022/07/02 03:40:35;;;;;;;2.25;1.60;;;14.50;92.30;;;;;;2057028;28;20032;-93
2022/07/02 03:41:36;;;;;;;3.05;1.90;;;14.50;92.30;;;;;;2057875;28;20054;-93
2022/07/02 03:42:37;;;;;;;3.22;1.85;;;14.50;92.30;;;;;;2065467;28;20504;-91
2022/07/02 03:43:38;;;;;;;3.38;2.05;;;14.50;92.30;;;;;;2075467;28;20034;-93
2022/07/02 03:44:38;;;;;;;3.70;1.98;;;14.50;92.30;;;;;;2074543;28;20026;-92
2022/07/02 03:45:39;;;;;;;3.00;1.60;;;14.50;92.30;;;;;;2066478;28;20051;-93
2022/07/02 03:46:40;;;;;;;2.72;1.73;;;14.50;92.30;;;;;;2051689;28;20059;-92
2022/07/02 03:47:41;;;;;;;3.08;1.80;;;14.50;92.30;;;;;;2043835;29;20043;-91
2022/07/02 03:48:42;;;;;;;2.17;1.50;;;14.60;92.30;;;;;;2051527;28;20031;-92
2022/07/02 03:49:43;;;;;;;3.58;1.75;;;14.60;92.30;;;;;;2059503;28;20023;-88
2022/07/02 03:50:43;;;;;;;2.45;1.70;;;14.60;92.30;;;;;;2059685;28;20037;-90
2022/07/02 03:51:44;;;;;;;2.67;1.50;;;14.60;92.30;;;;;;2051472;29;20028;-93
2022/07/02 03:52:45;;;;;;;4.18;1.70;;;14.70;92.30;;;;;;2051562;28;20039;-91
2022/07/02 03:53:45;;;;;;;3.28;1.77;;;14.70;92.30;;;;;;2059321;28;20035;-90
2022/07/02 03:54:46;;;;;;;3.05;1.70;;;14.70;92.20;;;;;;2041752;29;20055;-92
2022/07/02 03:55:47;;;;;;;2.53;1.80;;;14.70;92.20;;;;;;2054116;28;20122;-92
2022/07/02 03:56:47;;;;;;;3.35;1.92;;;14.70;92.20;;;;;;2051831;28;20401;-93
2022/07/02 03:57:49;;;;;;;4.07;2.10;;;14.70;92.20;;;;;;2052062;29;20034;-94
2022/07/02 03:58:50;;;;;;;3.40;1.80;;;14.70;92.20;;;;;;2043892;29;20047;-93
2022/07/02 03:59:51;;;;;;;3.20;1.90;;;14.70;92.20;;;;;;2035736;29;20479;-93
2022/07/02 04:00:52;;;;;;;3.58;1.90;;;14.70;92.20;;;;;;2044239;28;20147;-93
2022/07/02 04:01:52;;;;;;;3.47;1.80;;;14.80;92.20;;;;;;2051688;28;20131;-93
2022/07/02 04:02:53;;;;;;;3.60;1.80;;;14.70;92.20;;;;;;2054087;28;20039;-93
2022/07/02 04:03:54;;;;;;;3.50;1.92;;;14.70;92.20;;;;;;2062894;28;20023;-93
2022/07/02 04:04:55;;;;;;;2.90;1.67;;;14.70;92.20;;;;;;2046159;29;20051;-93
2022/07/02 04:05:56;;;;;;;3.45;1.80;;;14.70;92.10;;;;;;2051672;28;20043;-92
2022/07/02 04:06:57;;;;;;;2.83;1.77;;;14.80;92.10;;;;;;2051618;28;20067;-93
2022/07/02 04:07:58;;;;;;;3.70;1.95;;;14.80;92.10;;;;;;2035541;29;20114;-94
2022/07/02 04:08:58;;;;;;;4.28;1.90;;;14.80;92.10;;;;;;2035826;29;20055;-94
2022/07/02 04:09:59;;;;;;;3.05;1.95;;;14.80;92.10;;;;;;2051887;28;20095;-93
2022/07/02 04:11:00;;;;;;;3.53;2.00;;;14.80;92.10;;;;;;2043607;29;20102;-93
2022/07/02 04:12:00;;;;;;;3.45;1.67;;;14.80;92.10;;;;;;2035535;29;20055;-93
2022/07/02 04:13:01;;;;;;;3.22;1.80;;;14.80;92.10;;;;;;2027841;29;20040;-93
2022/07/02 04:14:02;;;;;;;5.70;1.90;;;14.80;92.00;;;;;;2043277;28;20126;-94
2022/07/02 04:15:04;;;;;;;2.88;1.77;;;14.80;92.00;;;;;;2050976;29;20063;-93
2022/07/02 04:16:05;;;;;;;3.30;1.70;;;14.80;92.00;;;;;;2043957;28;20130;-92
2022/07/02 04:17:06;;;;;;;2.88;1.70;;;14.80;92.00;;;;;;2051156;28;20042;-94
2022/07/02 04:18:06;;;;;;;2.63;1.70;;;14.80;92.00;;;;;;2043945;28;20449;-93
2022/07/02 04:19:07;;;;;;;3.90;1.73;;;14.80;92.00;;;;;;2043629;29;20040;-93
2022/07/02 04:20:11;;;;;;;3.33;1.85;;;14.80;92.00;;;;;;2044217;28;20075;-93
2022/07/02 04:21:11;;;;;;;2.85;1.60;;;14.80;92.00;;;;;;2044381;28;20092;-93
2022/07/02 04:22:12;;;;;;;2.58;1.63;;;14.90;92.00;;;;;;2043488;29;20040;-94
2022/07/02 04:23:13;;;;;;;3.78;1.90;;;14.90;92.00;;;;;;2043621;29;20036;-93
2022/07/02 04:24:13;;;;;;;2.90;1.75;;;14.90;91.90;;;;;;2059283;28;20098;-93
2022/07/02 04:25:14;;;;;;;2.70;1.77;;;15.00;91.90;;;;;;2059271;28;20481;-93
2022/07/02 04:26:15;;;;;;;4.15;1.88;;;15.00;91.80;;;;;;2043569;29;20056;-93
2022/07/02 04:27:17;;;;;;;3.75;1.90;;;15.10;91.70;;;;;;2051599;28;20415;-93
2022/07/02 04:28:18;;;;;;;3.28;1.70;;;15.10;91.60;;;;;;2051207;29;20425;-93
2022/07/02 04:29:19;;;;;;;2.95;1.65;;;15.10;91.60;;;;;;2052209;28;20070;-93
2022/07/02 04:30:20;;;;;;;3.50;1.77;;;15.20;91.50;;;;;;2052063;28;20028;-94
2022/07/02 04:31:20;;;;;;;3.25;1.90;;;15.20;91.50;;;;;;2036284;29;20511;-93
2022/07/02 04:32:21;;;;;;;3.88;1.67;;;15.20;91.40;;;;;;2060622;28;20133;-93
2022/07/02 04:33:22;;;;;;;3.25;1.77;;;15.30;91.40;;;;;;2052571;28;20070;-93
2022/07/02 04:34:24;;;;;;;3.22;1.85;;;15.30;91.30;;;;;;2037780;29;20059;-94
2022/07/02 04:35:24;;;;;;;3.13;1.70;;;15.30;91.30;;;;;;2046131;28;20066;-93
2022/07/02 04:36:25;;;;;;;3.67;1.58;;;15.40;91.20;;;;;;2053632;28;20023;-93
2022/07/02 04:37:26;;;;;;;3.72;2.00;;;15.40;91.20;;;;;;2061701;28;20035;-94
2022/07/02 04:38:27;;;;;;;3.92;1.88;;;15.40;91.10;;;;;;2054149;28;20075;-93
2022/07/02 04:39:27;;;;;;;3.35;1.77;;;15.40;91.10;;;;;;2053809;28;20043;-94
2022/07/02 04:40:28;;;;;;;2.80;1.60;;;15.40;91.10;;;;;;2053766;28;20039;-94
2022/07/02 04:41:29;;;;;;;4.68;2.10;;;15.50;91.10;;;;;;2055238;28;20042;-93
2022/07/02 04:42:29;;;;;;;3.10;1.60;;;15.50;91.10;;;;;;2065851;28;20030;-93
2022/07/02 04:43:30;;;;;;;3.17;1.67;;;15.50;91.00;;;;;;2058142;28;20053;-93
2022/07/02 04:44:31;;;;;;;4.43;1.83;;;15.50;91.00;;;;;;2066108;28;20022;-93
2022/07/02 04:45:31;;;;;;;3.55;1.73;;;15.50;91.00;;;;;;2050861;29;20048;-93
2022/07/02 04:46:32;;;;;;;3.03;1.80;;;15.60;91.00;;;;;;2049443;28;20031;-93
2022/07/02 04:47:33;;;;;;;3.78;1.77;;;15.60;90.90;;;;;;2057530;29;20134;-93
2022/07/02 04:48:34;;;;;;;4.82;1.92;;;15.60;90.90;;;;;;2063218;28;20055;-93
2022/07/02 04:49:34;;;;;;;2.88;1.67;;;15.70;90.90;;;;;;2072077;28;20023;-92
2022/07/02 04:50:35;;;;;;;4.32;1.90;;;15.70;90.80;;;;;;2073574;28;20037;-94
2022/07/02 04:51:36;;;;;;;2.63;1.60;;;15.70;90.80;;;;;;2063804;28;20031;-93
2022/07/02 04:52:36;;;;;;;3.25;1.80;;;15.70;90.70;;;;;;2063025;28;20039;-93
2022/07/02 04:53:37;;;;;;;4.00;1.60;;;15.80;90.70;;;;;;2061469;28;20035;-93
2022/07/02 04:54:38;;;;;;;2.50;1.50;;;15.70;90.60;;;;;;2052826;28;20038;-93
2022/07/02 04:55:38;;;;;;;3.30;1.70;;;15.80;90.60;;;;;;2060027;28;20473;-93
2022/07/02 04:56:39;;;;;;;3.20;1.70;;;15.80;90.60;;;;;;2058497;28;20034;-93
2022/07/02 04:57:40;;;;;;;2.90;1.67;;;15.80;90.50;;;;;;2050174;29;20067;-92
2022/07/02 04:58:41;;;;;;;3.20;1.60;;;15.80;90.50;;;;;;2057804;28;20408;-93
2022/07/02 04:59:44;;;;;;;2.83;1.50;;;15.80;90.50;;;;;;2057571;28;20050;-93
2022/07/02 05:00:46;;;;;;;3.03;1.40;;;15.80;90.50;;;;;;2058236;28;20486;-93
2022/07/02 05:01:46;;;;;;;4.55;1.70;;;15.80;90.50;;;;;;2049633;28;20115;-94
2022/07/02 05:02:49;;;;;;;3.05;1.70;;;15.80;90.50;;;;;;2050209;28;20046;-92
2022/07/02 05:03:51;;;;;;;2.42;1.48;;;15.80;90.50;;;;;;2050054;28;20046;-93
2022/07/02 05:04:52;;;;;;;2.53;1.60;;;15.80;90.50;;;;;;2058079;28;20074;-93
2022/07/02 05:05:53;;;;;;;3.28;1.67;;;15.80;90.50;;;;;;2057653;28;20083;-93
2022/07/02 05:06:54;;;;;;;4.25;1.70;;;15.80;90.50;;;;;;2049919;28;20035;-93
2022/07/02 05:07:54;;;;;;;3.08;1.63;;;15.80;90.50;;;;;;2068475;28;20053;-93
2022/07/02 05:08:55;;;;;;;3.55;1.65;;;15.80;90.50;;;;;;2057553;28;20034;-93
2022/07/02 05:09:58;;;;;;;4.18;1.48;;;15.80;90.50;;;;;;2049577;28;20126;-93
2022/07/02 05:10:58;;;;;;;3.25;1.70;;;15.80;90.50;;;;;;2057080;28;20045;-93
2022/07/02 05:12:00;;;;;;;3.13;1.85;;;15.80;90.50;;;;;;2049699;28;20082;-94
2022/07/02 05:13:07;;;;;;;4.90;1.50;;;15.80;90.50;;;;;;2065435;28;20027;-94
2022/07/02 05:14:07;;;;;;;3.72;1.48;;;15.80;90.50;;;;;;2050493;28;20118;-93
2022/07/02 05:15:10;;;;;;;3.50;1.63;;;15.80;90.50;;;;;;2041977;28;20047;-93
2022/07/02 05:16:11;;;;;;;2.25;1.40;;;15.90;90.50;;;;;;2050602;28;20032;-93
2022/07/02 05:17:13;;;;;;;4.22;1.65;;;15.90;90.50;;;;;;2067530;28;20023;-93
2022/07/02 05:18:14;;;;;;;3.35;1.58;;;15.90;90.40;;;;;;2057394;28;20035;-93
2022/07/02 05:19:15;;;;;;;3.25;1.60;;;16.00;90.40;;;;;;2057681;28;20477;-93
2022/07/02 05:20:16;;;;;;;2.88;1.50;;;16.20;90.30;;;;;;2057367;28;20042;-92
2022/07/02 05:21:16;;;;;;;3.00;1.60;;;16.30;90.20;;;;;;2057673;28;20038;-92
2022/07/02 05:22:17;;;;;;;4.68;1.50;;;16.50;90.00;;;;;;2057587;28;20094;-93
2022/07/02 05:23:18;;;;;;;3.40;1.30;;;16.60;89.70;;;;;;2065458;28;20449;-93
2022/07/02 05:24:18;;;;;;;2.70;1.50;;;16.80;89.40;;;;;;2057511;28;20070;-94